Terminal Aerodrome Forecast
Issued by NWS Jackson, MS

Home | Current Version | Previous Version | Text Only | Print | Product List | Glossary On
Versions: 1 2 3 4 5 6 7 8 9 10 11 12 13 14 15 16 17 18 19
000
FTUS44 KJAN 022130 AAA
TAFMEI
TAF AMD
KMEI 022130Z 0222/0318 33006KT P6SM FEW018 BKN060 OVC100
     FM030200 35006KT P6SM -RA BKN008 OVC015
     FM031200 36005KT P6SM SCT025 BKN050=

USA.gov is the U.S. government's official web portal to all federal, state and local government web resources and services.